createdAt,value
2022-12-19T00:00:18.173Z,89.00
2022-12-19T00:03:06.227Z,88.47
2022-12-19T00:05:37.867Z,90.57
2022-12-19T00:08:17.115Z,85.43
2022-12-19T00:10:54.758Z,84.80
2022-12-19T00:13:24.603Z,83.93
2022-12-19T00:15:52.952Z,87.32
2022-12-19T00:18:21.593Z,84.25
2022-12-19T00:20:56.505Z,84.95
2022-12-19T00:23:24.931Z,86.85
2022-12-19T00:25:52.627Z,84.40
2022-12-19T00:28:22.336Z,85.88
2022-12-19T00:30:51.775Z,86.45
2022-12-19T00:33:23.144Z,84.68
2022-12-19T00:35:51.273Z,79.18
2022-12-19T00:38:19.313Z,83.07
2022-12-19T00:40:47.050Z,84.38
2022-12-19T00:43:15.498Z,81.20
2022-12-19T00:45:43.261Z,84.57
2022-12-19T00:48:12.646Z,87.97
2022-12-19T00:53:11.334Z,64.38
2022-12-19T00:55:39.484Z,90.25
2022-12-19T00:58:07.582Z,102.35
2022-12-19T01:00:35.369Z,95.45
2022-12-19T01:03:03.402Z,108.53
2022-12-19T01:05:35.690Z,88.82
2022-12-19T01:08:04.465Z,81.10
2022-12-19T01:10:32.223Z,86.20
2022-12-19T01:12:59.423Z,77.53
2022-12-19T01:15:27.137Z,84.53
2022-12-19T01:17:55.181Z,88.70
2022-12-19T01:20:29.768Z,75.82
2022-12-19T01:23:00.597Z,78.60
2022-12-19T01:25:28.848Z,80.85
2022-12-19T01:27:57.068Z,84.32
2022-12-19T01:30:24.920Z,88.32
2022-12-19T01:32:54.264Z,85.35
2022-12-19T01:35:23.020Z,84.75
2022-12-19T01:37:51.542Z,83.93
2022-12-19T01:40:21.919Z,83.18
2022-12-19T01:42:50.418Z,82.10
2022-12-19T01:45:33.435Z,74.72
2022-12-19T01:48:15.278Z,76.30
2022-12-19T01:50:58.014Z,76.20
2022-12-19T01:53:36.642Z,79.63
2022-12-19T01:56:18.959Z,74.90
2022-12-19T01:58:49.596Z,75.32
2022-12-19T02:01:19.114Z,75.60
2022-12-19T02:03:48.197Z,75.20
2022-12-19T02:06:16.097Z,76.07
2022-12-19T02:08:47.113Z,73.00
2022-12-19T02:11:14.836Z,76.15
2022-12-19T02:13:44.892Z,72.95
2022-12-19T02:16:30.141Z,74.15
2022-12-19T02:19:13.431Z,69.43
2022-12-19T02:21:54.879Z,73.55
2022-12-19T02:24:50.501Z,80.50
2022-12-19T02:27:46.666Z,79.07
2022-12-19T02:30:18.912Z,76.72
2022-12-19T02:33:01.180Z,77.13
2022-12-19T02:35:36.717Z,76.82
2022-12-19T02:38:15.865Z,82.07
2022-12-19T02:40:50.059Z,84.25
2022-12-19T02:43:24.854Z,82.32
2022-12-19T02:45:54.159Z,77.72
2022-12-19T02:48:24.222Z,79.25
2022-12-19T02:50:52.186Z,80.88
2022-12-19T02:53:22.410Z,77.85
2022-12-19T02:58:44.511Z,69.55
2022-12-19T03:01:25.865Z,76.70
2022-12-19T03:04:15.407Z,75.07
2022-12-19T03:06:49.845Z,72.70
2022-12-19T03:09:25.321Z,73.80
2022-12-19T03:12:03.166Z,74.75
2022-12-19T03:14:32.814Z,74.72
2022-12-19T03:17:05.679Z,72.93
2022-12-19T03:19:35.758Z,65.90
2022-12-19T03:22:03.745Z,69.22
2022-12-19T03:24:31.605Z,54.22
2022-12-19T03:27:03.889Z,60.28
2022-12-19T03:29:34.222Z,56.13
2022-12-19T03:32:06.504Z,64.28
2022-12-19T03:34:39.784Z,69.82
2022-12-19T03:37:14.953Z,69.55
2022-12-19T03:39:46.643Z,60.65
2022-12-19T03:42:49.833Z,67.70
2022-12-19T03:45:24.414Z,69.75
2022-12-19T03:47:59.444Z,74.60
2022-12-19T03:50:33.830Z,74.90
2022-12-19T03:53:12.393Z,74.97
2022-12-19T03:55:47.480Z,72.88
2022-12-19T03:58:22.508Z,69.22
2022-12-19T04:00:51.495Z,70.70
2022-12-19T04:03:20.473Z,75.90
2022-12-19T04:05:50.454Z,73.80
2022-12-19T04:08:19.127Z,77.07
2022-12-19T04:10:52.618Z,73.10
2022-12-19T04:13:23.733Z,73.97
2022-12-19T04:15:57.739Z,66.68
2022-12-19T04:18:26.521Z,70.80
2022-12-19T04:21:00.034Z,70.25
2022-12-19T04:23:32.257Z,73.45
2022-12-19T04:28:36.378Z,69.03
2022-12-19T04:31:05.514Z,74.13
2022-12-19T04:33:33.605Z,70.07
2022-12-19T04:36:02.758Z,66.43
2022-12-19T04:38:30.898Z,68.22
2022-12-19T04:40:58.656Z,73.70
2022-12-19T04:43:26.675Z,75.15
2022-12-19T04:45:57.570Z,77.50
2022-12-19T04:48:26.399Z,67.13
2022-12-19T04:50:54.141Z,83.20
2022-12-19T04:53:23.860Z,78.22
2022-12-19T04:55:51.653Z,81.32
2022-12-19T04:58:22.059Z,79.35
2022-12-19T05:00:50.101Z,78.65
2022-12-19T05:03:18.145Z,74.30
2022-12-19T05:05:46.265Z,78.88
2022-12-19T05:08:14.385Z,83.07
2022-12-19T05:10:43.534Z,76.25
2022-12-19T05:13:12.258Z,82.25
2022-12-19T05:15:40.543Z,80.05
2022-12-19T05:18:10.101Z,84.68
2022-12-19T05:20:38.046Z,82.45
2022-12-19T05:23:11.391Z,79.03
2022-12-19T05:25:45.396Z,77.20
2022-12-19T05:28:13.905Z,76.97
2022-12-19T05:30:41.720Z,74.93
2022-12-19T05:33:09.774Z,74.03
2022-12-19T05:35:38.402Z,79.63
2022-12-19T05:38:06.548Z,82.05
2022-12-19T05:40:34.864Z,78.75
2022-12-19T05:43:04.573Z,77.53
2022-12-19T05:45:32.299Z,83.97
2022-12-19T05:48:01.560Z,78.93
2022-12-19T05:50:29.720Z,74.35
2022-12-19T05:52:57.697Z,72.82
2022-12-19T05:55:25.559Z,69.10
2022-12-19T05:57:53.772Z,69.93
2022-12-19T06:00:22.956Z,76.57
2022-12-19T06:02:51.035Z,72.47
2022-12-19T06:05:19.101Z,71.97
2022-12-19T06:07:47.936Z,72.35
2022-12-19T06:10:16.021Z,72.53
2022-12-19T06:12:44.175Z,71.43
2022-12-19T06:15:12.369Z,78.63
2022-12-19T06:17:41.725Z,76.63
2022-12-19T06:20:10.694Z,71.63
2022-12-19T06:22:38.694Z,62.28
2022-12-19T06:25:07.719Z,68.03
2022-12-19T06:27:35.891Z,61.60
2022-12-19T06:30:04.083Z,63.20
2022-12-19T06:32:37.759Z,62.05
2022-12-19T06:35:09.063Z,64.90
2022-12-19T06:37:39.563Z,60.25
2022-12-19T06:40:29.102Z,64.85
2022-12-19T06:42:56.248Z,63.03
2022-12-19T06:45:24.248Z,63.55
2022-12-19T06:47:52.254Z,65.22
2022-12-19T06:50:21.383Z,63.85
2022-12-19T06:52:49.488Z,64.93
2022-12-19T06:55:17.749Z,59.90
2022-12-19T06:57:46.765Z,67.32
2022-12-19T07:00:16.025Z,64.50
2022-12-19T07:02:46.884Z,59.40
2022-12-19T07:05:15.433Z,64.38
2022-12-19T07:07:44.856Z,68.75
2022-12-19T07:10:12.699Z,68.80
2022-12-19T07:12:40.881Z,77.15
2022-12-19T07:15:09.273Z,71.75
2022-12-19T07:17:37.346Z,68.65
2022-12-19T07:20:06.491Z,73.82
2022-12-19T07:22:36.149Z,68.20
2022-12-19T07:25:07.016Z,64.20
2022-12-19T07:27:36.389Z,114.15
2022-12-19T07:30:05.604Z,83.35
2022-12-19T07:32:33.725Z,79.78
2022-12-19T07:35:02.591Z,71.38
2022-12-19T07:37:30.627Z,72.63
2022-12-19T07:39:58.466Z,72.53
2022-12-19T07:42:32.298Z,77.47
2022-12-19T07:45:01.316Z,75.15
2022-12-19T07:47:29.868Z,78.30
2022-12-19T07:49:57.603Z,74.28
2022-12-19T07:52:25.680Z,77.47
2022-12-19T07:54:53.818Z,81.35
2022-12-19T07:57:21.881Z,78.88
2022-12-19T07:59:50.997Z,83.07
2022-12-19T08:02:19.256Z,115.95
2022-12-19T08:04:47.358Z,107.72
2022-12-19T08:07:15.326Z,94.10
2022-12-19T08:09:43.226Z,90.45
2022-12-19T08:12:11.448Z,92.38
2022-12-19T08:14:39.187Z,81.57
2022-12-19T08:17:20.677Z,77.35
2022-12-19T08:19:48.916Z,81.88
2022-12-19T08:22:17.287Z,78.32
2022-12-19T08:24:45.359Z,72.70
2022-12-19T08:27:13.417Z,76.68
2022-12-19T08:29:41.438Z,72.50
2022-12-19T08:32:13.311Z,71.72
2022-12-19T08:34:45.045Z,67.32
2022-12-19T08:37:13.335Z,72.43
2022-12-19T08:39:41.054Z,64.43
2022-12-19T08:42:09.251Z,64.25
2022-12-19T08:44:37.010Z,61.92
2022-12-19T08:47:05.088Z,57.95
2022-12-19T08:49:34.472Z,56.05
2022-12-19T08:52:02.483Z,60.78
2022-12-19T08:54:30.289Z,58.28
2022-12-19T08:56:58.947Z,61.47
2022-12-19T08:59:31.188Z,64.97
2022-12-19T09:02:00.764Z,59.65
2022-12-19T09:05:58.840Z,61.72
2022-12-19T09:07:18.616Z,65.15
2022-12-19T09:09:46.697Z,63.92
2022-12-19T09:12:16.121Z,66.80
2022-12-19T09:14:45.112Z,66.00
2022-12-19T09:17:13.217Z,66.57
2022-12-19T09:19:44.311Z,66.97
2022-12-19T09:22:15.606Z,61.60
2022-12-19T09:24:45.257Z,64.88
2022-12-19T09:27:13.437Z,62.83
2022-12-19T09:29:43.371Z,65.70
2022-12-19T09:32:11.181Z,63.70
2022-12-19T09:34:39.660Z,68.40
2022-12-19T09:37:08.962Z,77.70
2022-12-19T09:39:39.724Z,65.80
2022-12-19T09:42:26.399Z,71.32
2022-12-19T09:45:31.368Z,66.90
2022-12-19T09:48:02.675Z,67.35
2022-12-19T09:50:40.196Z,70.68
2022-12-19T09:53:16.679Z,75.63
2022-12-19T09:55:47.605Z,73.25
2022-12-19T09:58:28.366Z,74.00
2022-12-19T10:01:00.097Z,76.57
2022-12-19T10:03:39.803Z,58.50
2022-12-19T10:06:17.848Z,75.75
2022-12-19T10:10:03.130Z,76.15
2022-12-19T10:12:42.161Z,68.38
2022-12-19T10:15:09.415Z,71.38
2022-12-19T10:18:00.362Z,73.65
2022-12-19T10:20:31.323Z,72.63
2022-12-19T10:23:12.136Z,54.43
2022-12-19T10:25:52.518Z,71.55
2022-12-19T10:28:36.552Z,72.25
2022-12-19T10:31:21.038Z,77.50
2022-12-19T10:33:57.264Z,84.32
2022-12-19T10:36:48.609Z,78.90
2022-12-19T10:39:24.728Z,84.72
2022-12-19T10:41:57.201Z,86.72
2022-12-19T10:44:29.091Z,83.53
2022-12-19T10:46:58.516Z,85.50
2022-12-19T10:49:28.175Z,84.75
2022-12-19T10:52:00.989Z,88.00
2022-12-19T10:54:39.790Z,85.47
2022-12-19T10:57:25.296Z,81.40
2022-12-19T11:00:01.740Z,86.85
2022-12-19T11:02:40.695Z,86.97
2022-12-19T11:05:24.259Z,88.22
2022-12-19T11:08:04.144Z,79.97
2022-12-19T11:11:03.978Z,87.63
2022-12-19T11:18:17.183Z,102.32
2022-12-19T11:20:27.417Z,81.13
2022-12-19T11:29:26.780Z,79.80
2022-12-19T11:30:41.735Z,83.00
2022-12-19T11:30:44.325Z,77.90
2022-12-19T11:30:48.670Z,77.22
2022-12-19T11:33:56.084Z,77.18
2022-12-19T11:36:35.952Z,80.03
2022-12-19T11:39:04.439Z,77.28
2022-12-19T11:41:40.017Z,76.72
2022-12-19T11:44:18.509Z,80.47
2022-12-19T11:46:50.915Z,79.80
2022-12-19T11:49:26.757Z,93.28
2022-12-19T11:52:02.188Z,85.70
2022-12-19T11:54:35.789Z,82.75
2022-12-19T11:57:03.768Z,82.13
2022-12-19T11:59:36.069Z,82.85
2022-12-19T12:02:29.799Z,82.85
2022-12-19T12:05:41.104Z,84.63
2022-12-19T12:09:30.347Z,84.50
2022-12-19T12:18:15.416Z,89.75
2022-12-19T12:24:53.627Z,85.57
2022-12-19T12:31:16.047Z,87.97
2022-12-19T12:31:19.169Z,90.15
2022-12-19T12:31:26.378Z,93.60
2022-12-19T12:31:52.226Z,93.60
2022-12-19T12:31:54.115Z,94.65
2022-12-19T12:35:28.966Z,93.63
2022-12-19T12:38:27.845Z,83.80
2022-12-19T12:41:16.707Z,86.07
2022-12-19T12:44:05.898Z,87.15
2022-12-19T12:46:40.671Z,89.88
2022-12-19T12:49:25.018Z,85.47
2022-12-19T12:51:53.624Z,88.93
2022-12-19T12:54:22.498Z,94.47
2022-12-19T12:56:51.931Z,88.85
2022-12-19T12:59:23.972Z,97.15
2022-12-19T13:01:55.880Z,100.20
2022-12-19T13:04:31.176Z,100.85
2022-12-19T13:07:16.608Z,116.13
2022-12-19T13:09:45.072Z,101.22
2022-12-19T13:12:39.153Z,109.25
2022-12-19T13:15:40.469Z,111.45
2022-12-19T13:18:37.793Z,96.32
2022-12-19T13:21:09.540Z,88.05
2022-12-19T13:23:46.582Z,91.82
2022-12-19T13:26:46.875Z,88.57
2022-12-19T13:29:55.566Z,90.90
2022-12-19T13:32:24.586Z,91.55
2022-12-19T13:35:01.727Z,91.07
2022-12-19T13:39:55.755Z,84.50
2022-12-19T13:40:55.734Z,84.95
2022-12-19T13:43:45.262Z,81.38
2022-12-19T13:46:41.436Z,82.63
2022-12-19T13:49:15.030Z,82.60
2022-12-19T13:51:47.246Z,78.57
2022-12-19T13:54:25.935Z,79.82
2022-12-19T13:56:54.798Z,79.25
2022-12-19T13:59:25.749Z,80.53
2022-12-19T14:01:56.432Z,82.90
2022-12-19T14:04:29.978Z,79.47
2022-12-19T14:07:01.355Z,109.88
2022-12-19T14:11:27.241Z,105.60
2022-12-19T14:13:43.608Z,93.13
2022-12-19T14:15:32.919Z,92.40
2022-12-19T14:18:41.799Z,93.30
2022-12-19T14:22:05.677Z,93.20
2022-12-19T14:24:10.190Z,93.32
2022-12-19T14:28:17.341Z,96.88
2022-12-19T14:30:28.244Z,94.25
2022-12-19T14:33:39.356Z,92.07
2022-12-19T14:36:06.580Z,92.05
2022-12-19T14:39:20.085Z,91.45
2022-12-19T14:41:07.891Z,91.43
2022-12-19T14:44:00.497Z,94.43
2022-12-19T14:52:35.933Z,97.00
2022-12-19T14:54:09.042Z,105.85
2022-12-19T14:54:49.348Z,120.95
2022-12-19T14:56:17.522Z,99.03
2022-12-19T14:58:56.056Z,106.37
2022-12-19T15:01:23.575Z,101.35
2022-12-19T15:04:49.200Z,95.65
2022-12-19T15:11:03.773Z,103.30
2022-12-19T15:14:46.617Z,98.63
2022-12-19T15:15:45.725Z,141.55
2022-12-19T15:18:23.715Z,124.15
2022-12-19T15:20:53.415Z,106.15
2022-12-19T15:23:22.528Z,104.30
2022-12-19T15:26:09.178Z,98.55
2022-12-19T15:28:42.734Z,104.15
2022-12-19T15:31:29.691Z,99.57
2022-12-19T15:36:46.105Z,105.65
2022-12-19T15:39:15.156Z,107.47
2022-12-19T15:41:46.823Z,108.30
2022-12-19T15:44:19.332Z,105.37
2022-12-19T15:46:49.201Z,108.80
2022-12-19T15:49:18.352Z,113.40
2022-12-19T15:51:47.256Z,113.72
2022-12-19T15:54:47.303Z,111.38
2022-12-19T15:57:05.039Z,131.00
2022-12-19T15:59:37.363Z,140.20
2022-12-19T16:02:17.415Z,134.75
2022-12-19T16:04:47.315Z,132.10
2022-12-19T16:07:17.815Z,119.10
2022-12-19T16:09:46.119Z,113.95
2022-12-19T16:12:17.812Z,112.93
2022-12-19T16:14:47.280Z,109.97
2022-12-19T16:17:21.098Z,95.38
2022-12-19T16:19:50.634Z,98.70
2022-12-19T16:22:21.065Z,100.57
2022-12-19T16:24:49.632Z,113.28
2022-12-19T16:27:25.774Z,111.70
2022-12-19T16:29:55.029Z,105.47
2022-12-19T16:32:25.525Z,100.35
2022-12-19T16:34:54.293Z,103.45
2022-12-19T16:37:25.898Z,98.32
2022-12-19T16:39:58.079Z,104.80
2022-12-19T16:42:28.252Z,101.22
2022-12-19T16:44:56.217Z,106.95
2022-12-19T16:47:24.243Z,106.40
2022-12-19T16:49:52.141Z,99.78
2022-12-19T16:52:20.120Z,97.00
2022-12-19T16:54:48.119Z,96.20
2022-12-19T16:57:20.456Z,95.18
2022-12-19T16:59:50.927Z,97.05
2022-12-19T17:02:39.087Z,104.88
2022-12-19T17:05:08.162Z,99.72
2022-12-19T17:07:36.525Z,99.15
2022-12-19T17:10:04.811Z,96.72
2022-12-19T17:12:33.047Z,99.82
2022-12-19T17:15:03.589Z,109.63
2022-12-19T17:17:31.618Z,108.07
2022-12-19T17:19:59.359Z,120.68
2022-12-19T17:22:27.751Z,110.47
2022-12-19T17:24:55.486Z,109.05
2022-12-19T17:27:23.501Z,114.80
2022-12-19T17:29:51.398Z,120.20
2022-12-19T17:32:24.333Z,105.75
2022-12-19T17:34:53.493Z,111.32
2022-12-19T17:37:21.946Z,111.70
2022-12-19T17:39:49.671Z,113.43
2022-12-19T17:42:22.556Z,115.57
2022-12-19T17:44:50.668Z,116.82
2022-12-19T17:47:21.261Z,113.55
2022-12-19T17:49:49.798Z,115.05
2022-12-19T17:52:19.563Z,119.20
2022-12-19T17:54:47.816Z,112.57
2022-12-19T17:57:17.142Z,110.28
2022-12-19T17:59:46.296Z,107.95
2022-12-19T18:02:24.688Z,109.55
2022-12-19T18:04:53.933Z,118.07
2022-12-19T18:07:22.572Z,111.32
2022-12-19T18:09:50.516Z,116.72
2022-12-19T18:12:18.673Z,123.03
2022-12-19T18:14:46.678Z,127.40
2022-12-19T18:17:21.622Z,142.10
2022-12-19T18:19:51.159Z,157.93
2022-12-19T18:22:19.248Z,140.73
2022-12-19T18:24:47.495Z,148.55
2022-12-19T18:27:15.799Z,140.23
2022-12-19T18:29:43.692Z,143.43
2022-12-19T18:32:18.858Z,142.52
2022-12-19T18:34:46.873Z,133.73
2022-12-19T18:37:17.097Z,126.35
2022-12-19T18:39:44.953Z,196.85
2022-12-19T18:42:22.624Z,131.95
2022-12-19T18:44:50.407Z,120.38
2022-12-19T18:47:23.185Z,122.88
2022-12-19T18:49:52.591Z,126.15
2022-12-19T18:52:22.177Z,138.43
2022-12-19T18:54:49.998Z,161.23
2022-12-19T18:57:18.059Z,176.98
2022-12-19T18:59:47.279Z,180.73
2022-12-19T19:02:26.451Z,147.80
2022-12-19T19:04:55.575Z,137.82
2022-12-19T19:07:24.959Z,130.40
2022-12-19T19:09:53.188Z,122.18
2022-12-19T19:12:21.943Z,129.35
2022-12-19T19:14:49.661Z,139.13
2022-12-19T19:17:24.114Z,138.13
2022-12-19T19:19:51.999Z,130.85
2022-12-19T19:22:20.697Z,134.73
2022-12-19T19:24:49.805Z,144.18
2022-12-19T19:27:18.459Z,139.43
2022-12-19T19:29:46.189Z,142.40
2022-12-19T19:32:14.206Z,142.00
2022-12-19T19:34:42.665Z,140.95
2022-12-19T19:37:14.628Z,136.82
2022-12-19T19:39:42.795Z,129.23
2022-12-19T19:42:12.230Z,137.93
2022-12-19T19:44:39.934Z,138.95
2022-12-19T19:47:08.006Z,139.02
2022-12-19T19:49:35.957Z,145.10
2022-12-19T19:52:04.180Z,139.98
2022-12-19T19:54:32.774Z,140.30
2022-12-19T19:57:01.206Z,139.57
2022-12-19T19:59:31.832Z,128.68
2022-12-19T20:02:00.236Z,122.88
2022-12-19T20:04:28.282Z,124.03
2022-12-19T20:06:56.470Z,131.40
2022-12-19T20:09:24.229Z,133.90
2022-12-19T20:11:52.523Z,130.10
2022-12-19T20:14:20.314Z,135.43
2022-12-19T20:16:50.354Z,144.80
2022-12-19T20:19:18.246Z,147.80
2022-12-19T20:21:46.258Z,142.35
2022-12-19T20:24:14.339Z,144.32
2022-12-19T20:26:42.705Z,143.88
2022-12-19T20:29:11.448Z,142.55
2022-12-19T20:31:40.250Z,151.60
2022-12-19T20:34:09.688Z,149.63
2022-12-19T20:36:38.120Z,160.38
2022-12-19T20:39:06.620Z,160.45
2022-12-19T20:41:34.771Z,160.13
2022-12-19T20:44:02.644Z,180.88
2022-12-19T20:46:30.764Z,164.13
2022-12-19T20:48:58.974Z,153.82
2022-12-19T20:51:28.302Z,168.73
2022-12-19T20:53:56.018Z,157.70
2022-12-19T20:56:25.840Z,152.43
2022-12-19T20:58:54.059Z,144.15
2022-12-19T21:01:23.527Z,158.38
2022-12-19T21:03:53.044Z,144.57
2022-12-19T21:06:25.211Z,160.77
2022-12-19T21:08:55.078Z,161.68
2022-12-19T21:11:23.557Z,161.88
2022-12-19T21:13:51.574Z,164.40
2022-12-19T21:16:22.756Z,163.90
2022-12-19T21:18:51.289Z,165.65
2022-12-19T21:21:22.030Z,165.02
2022-12-19T21:23:51.101Z,177.98
2022-12-19T21:26:22.020Z,176.68
2022-12-19T21:28:49.978Z,170.43
2022-12-19T21:31:23.295Z,170.25
2022-12-19T21:33:51.962Z,151.23
2022-12-19T21:36:22.347Z,144.77
2022-12-19T21:38:51.766Z,143.23
2022-12-19T21:41:22.343Z,148.40
2022-12-19T21:43:53.453Z,151.18
2022-12-19T21:46:23.895Z,156.02
2022-12-19T21:48:53.271Z,174.27
2022-12-19T21:51:24.170Z,176.30
2022-12-19T21:53:55.198Z,179.25
2022-12-19T21:56:27.275Z,180.60
2022-12-19T21:58:56.792Z,189.75
2022-12-19T22:01:26.419Z,192.25
2022-12-19T22:03:58.338Z,211.00
2022-12-19T22:06:28.624Z,204.10
2022-12-19T22:08:56.796Z,196.85
2022-12-19T22:11:26.312Z,204.95
2022-12-19T22:13:54.963Z,175.68
2022-12-19T22:16:23.746Z,144.38
2022-12-19T22:18:52.822Z,171.00
2022-12-19T22:21:21.159Z,169.73
2022-12-19T22:23:49.015Z,188.18
2022-12-19T22:26:18.980Z,209.05
2022-12-19T22:28:51.243Z,201.00
2022-12-19T22:31:22.047Z,167.73
2022-12-19T22:33:51.656Z,156.77
2022-12-19T22:36:27.259Z,159.38
2022-12-19T22:38:56.663Z,156.07
2022-12-19T22:41:25.714Z,164.55
2022-12-19T22:43:55.171Z,162.50
2022-12-19T22:46:26.143Z,167.77
2022-12-19T22:48:56.556Z,158.30
2022-12-19T22:51:25.758Z,169.00
2022-12-19T22:53:53.692Z,179.13
2022-12-19T22:56:23.453Z,186.98
2022-12-19T22:58:54.505Z,188.77
2022-12-19T23:01:26.004Z,175.73
2022-12-19T23:03:56.265Z,167.13
2022-12-19T23:06:25.431Z,175.80
2022-12-19T23:08:53.667Z,176.07
2022-12-19T23:11:24.787Z,177.10
2022-12-19T23:13:53.096Z,179.00
2022-12-19T23:16:21.103Z,175.77
2022-12-19T23:18:50.487Z,167.48
2022-12-19T23:21:20.846Z,174.52
2022-12-19T23:23:51.494Z,168.95
2022-12-19T23:26:21.701Z,173.10
2022-12-19T23:28:52.337Z,167.75
2022-12-19T23:31:20.843Z,165.90
2022-12-19T23:33:50.411Z,178.80
2022-12-19T23:36:38.193Z,188.35
2022-12-19T23:39:07.492Z,174.80
2022-12-19T23:41:35.671Z,177.27
2022-12-19T23:44:03.740Z,174.60
2022-12-19T23:46:32.159Z,174.27
2022-12-19T23:49:01.511Z,122.55
2022-12-19T23:51:30.030Z,150.98
2022-12-19T23:53:58.410Z,186.15
2022-12-19T23:56:28.175Z,184.00
2022-12-19T23:58:56.483Z,185.20
